sensor_id;sensor_type;location;lat;lon;timestamp;P1;durP1;ratioP1;P2;durP2;ratioP2
10452;SDS011;5274;51.992;8.518;2023-02-28T00:00:19;4.57;;;3.00;;
10452;SDS011;5274;51.992;8.518;2023-02-28T00:02:45;2.93;;;2.63;;
10452;SDS011;5274;51.992;8.518;2023-02-28T00:05:12;4.03;;;3.10;;
10452;SDS011;5274;51.992;8.518;2023-02-28T00:07:38;2.90;;;2.70;;
10452;SDS011;5274;51.992;8.518;2023-02-28T00:10:05;6.33;;;3.13;;
10452;SDS011;5274;51.992;8.518;2023-02-28T00:12:32;3.33;;;3.00;;
10452;SDS011;5274;51.992;8.518;2023-02-28T00:14:58;4.97;;;3.53;;
10452;SDS011;5274;51.992;8.518;2023-02-28T00:17:24;4.40;;;3.27;;
10452;SDS011;5274;51.992;8.518;2023-02-28T00:19:50;4.10;;;3.57;;
10452;SDS011;5274;51.992;8.518;2023-02-28T00:22:17;4.17;;;2.97;;
10452;SDS011;5274;51.992;8.518;2023-02-28T00:24:43;5.13;;;3.80;;
10452;SDS011;5274;51.992;8.518;2023-02-28T00:27:09;5.83;;;3.33;;
10452;SDS011;5274;51.992;8.518;2023-02-28T00:29:35;6.23;;;2.90;;
10452;SDS011;5274;51.992;8.518;2023-02-28T00:32:01;8.20;;;2.90;;
10452;SDS011;5274;51.992;8.518;2023-02-28T00:34:26;5.17;;;3.30;;
10452;SDS011;5274;51.992;8.518;2023-02-28T00:36:52;4.17;;;3.40;;
10452;SDS011;5274;51.992;8.518;2023-02-28T00:39:18;3.73;;;3.23;;
10452;SDS011;5274;51.992;8.518;2023-02-28T00:41:44;3.57;;;3.00;;
10452;SDS011;5274;51.992;8.518;2023-02-28T00:44:10;5.93;;;3.83;;
10452;SDS011;5274;51.992;8.518;2023-02-28T00:46:36;4.97;;;3.60;;
10452;SDS011;5274;51.992;8.518;2023-02-28T00:49:02;5.67;;;3.83;;
10452;SDS011;5274;51.992;8.518;2023-02-28T00:51:28;4.20;;;3.80;;
10452;SDS011;5274;51.992;8.518;2023-02-28T00:53:54;5.10;;;4.23;;
10452;SDS011;5274;51.992;8.518;2023-02-28T00:56:20;8.17;;;4.27;;
10452;SDS011;5274;51.992;8.518;2023-02-28T00:58:46;5.83;;;4.40;;
10452;SDS011;5274;51.992;8.518;2023-02-28T01:01:12;4.63;;;4.20;;
10452;SDS011;5274;51.992;8.518;2023-02-28T01:03:38;5.33;;;4.30;;
10452;SDS011;5274;51.992;8.518;2023-02-28T01:06:04;7.10;;;4.33;;
10452;SDS011;5274;51.992;8.518;2023-02-28T01:08:30;8.70;;;4.40;;
10452;SDS011;5274;51.992;8.518;2023-02-28T01:10:56;5.17;;;4.40;;
10452;SDS011;5274;51.992;8.518;2023-02-28T01:13:22;7.00;;;4.90;;
10452;SDS011;5274;51.992;8.518;2023-02-28T01:15:50;7.67;;;4.37;;
10452;SDS011;5274;51.992;8.518;2023-02-28T01:18:17;5.47;;;4.37;;
10452;SDS011;5274;51.992;8.518;2023-02-28T01:20:42;8.20;;;4.90;;
10452;SDS011;5274;51.992;8.518;2023-02-28T01:23:09;5.27;;;4.10;;
10452;SDS011;5274;51.992;8.518;2023-02-28T01:25:35;5.77;;;4.30;;
10452;SDS011;5274;51.992;8.518;2023-02-28T01:28:01;9.57;;;4.87;;
10452;SDS011;5274;51.992;8.518;2023-02-28T01:30:27;4.90;;;4.37;;
10452;SDS011;5274;51.992;8.518;2023-02-28T01:32:53;8.23;;;5.40;;
10452;SDS011;5274;51.992;8.518;2023-02-28T01:35:19;4.90;;;4.40;;
10452;SDS011;5274;51.992;8.518;2023-02-28T01:37:45;9.27;;;5.97;;
10452;SDS011;5274;51.992;8.518;2023-02-28T01:40:11;9.30;;;6.30;;
10452;SDS011;5274;51.992;8.518;2023-02-28T01:42:38;8.17;;;6.17;;
10452;SDS011;5274;51.992;8.518;2023-02-28T01:45:16;10.37;;;5.73;;
10452;SDS011;5274;51.992;8.518;2023-02-28T01:47:44;8.77;;;5.67;;
10452;SDS011;5274;51.992;8.518;2023-02-28T01:50:12;9.60;;;5.67;;
10452;SDS011;5274;51.992;8.518;2023-02-28T01:52:39;9.60;;;6.17;;
10452;SDS011;5274;51.992;8.518;2023-02-28T01:55:05;8.43;;;5.53;;
10452;SDS011;5274;51.992;8.518;2023-02-28T01:57:32;9.07;;;6.30;;
10452;SDS011;5274;51.992;8.518;2023-02-28T02:00:04;17.17;;;5.77;;
10452;SDS011;5274;51.992;8.518;2023-02-28T02:02:34;9.37;;;5.90;;
10452;SDS011;5274;51.992;8.518;2023-02-28T02:05:06;9.40;;;5.90;;
10452;SDS011;5274;51.992;8.518;2023-02-28T02:07:33;7.17;;;5.67;;
10452;SDS011;5274;51.992;8.518;2023-02-28T02:10:00;9.60;;;5.80;;
10452;SDS011;5274;51.992;8.518;2023-02-28T02:12:44;10.43;;;5.37;;
10452;SDS011;5274;51.992;8.518;2023-02-28T02:15:19;7.23;;;5.70;;
10452;SDS011;5274;51.992;8.518;2023-02-28T02:17:49;7.53;;;5.83;;
10452;SDS011;5274;51.992;8.518;2023-02-28T02:28:06;10.77;;;6.07;;
10452;SDS011;5274;51.992;8.518;2023-02-28T02:30:42;7.17;;;5.20;;
10452;SDS011;5274;51.992;8.518;2023-02-28T02:35:47;9.40;;;5.77;;
10452;SDS011;5274;51.992;8.518;2023-02-28T02:38:26;7.87;;;5.47;;
10452;SDS011;5274;51.992;8.518;2023-02-28T02:46:08;8.67;;;5.70;;
10452;SDS011;5274;51.992;8.518;2023-02-28T02:48:36;8.13;;;5.93;;
10452;SDS011;5274;51.992;8.518;2023-02-28T02:51:05;6.70;;;5.50;;
10452;SDS011;5274;51.992;8.518;2023-02-28T02:53:37;8.53;;;6.30;;
10452;SDS011;5274;51.992;8.518;2023-02-28T02:56:06;9.63;;;6.33;;
10452;SDS011;5274;51.992;8.518;2023-02-28T02:58:34;9.67;;;6.00;;
10452;SDS011;5274;51.992;8.518;2023-02-28T03:01:07;9.33;;;6.27;;
10452;SDS011;5274;51.992;8.518;2023-02-28T03:03:34;11.90;;;6.47;;
10452;SDS011;5274;51.992;8.518;2023-02-28T03:06:01;9.63;;;6.50;;
10452;SDS011;5274;51.992;8.518;2023-02-28T03:08:28;10.30;;;6.13;;
10452;SDS011;5274;51.992;8.518;2023-02-28T03:10:58;13.70;;;6.37;;
10452;SDS011;5274;51.992;8.518;2023-02-28T03:23:45;9.37;;;6.67;;
10452;SDS011;5274;51.992;8.518;2023-02-28T03:26:17;11.63;;;7.70;;
10452;SDS011;5274;51.992;8.518;2023-02-28T03:31:19;12.23;;;7.30;;
10452;SDS011;5274;51.992;8.518;2023-02-28T03:33:49;9.93;;;7.37;;
10452;SDS011;5274;51.992;8.518;2023-02-28T03:36:20;14.53;;;7.43;;
10452;SDS011;5274;51.992;8.518;2023-02-28T03:38:49;10.17;;;6.90;;
10452;SDS011;5274;51.992;8.518;2023-02-28T03:41:22;10.43;;;6.73;;
10452;SDS011;5274;51.992;8.518;2023-02-28T03:43:50;9.87;;;6.67;;
10452;SDS011;5274;51.992;8.518;2023-02-28T03:46:17;10.57;;;7.23;;
10452;SDS011;5274;51.992;8.518;2023-02-28T03:48:49;12.30;;;7.57;;
10452;SDS011;5274;51.992;8.518;2023-02-28T03:51:17;10.63;;;7.70;;
10452;SDS011;5274;51.992;8.518;2023-02-28T03:53:46;11.93;;;6.63;;
10452;SDS011;5274;51.992;8.518;2023-02-28T03:56:17;10.03;;;6.40;;
10452;SDS011;5274;51.992;8.518;2023-02-28T03:58:46;7.87;;;5.87;;
10452;SDS011;5274;51.992;8.518;2023-02-28T04:01:20;9.47;;;6.27;;
10452;SDS011;5274;51.992;8.518;2023-02-28T04:03:47;9.50;;;6.60;;
10452;SDS011;5274;51.992;8.518;2023-02-28T04:06:18;11.10;;;6.37;;
10452;SDS011;5274;51.992;8.518;2023-02-28T04:08:44;9.97;;;6.10;;
10452;SDS011;5274;51.992;8.518;2023-02-28T04:11:16;7.47;;;6.07;;
10452;SDS011;5274;51.992;8.518;2023-02-28T04:13:44;7.77;;;6.00;;
10452;SDS011;5274;51.992;8.518;2023-02-28T04:16:10;10.20;;;5.67;;
10452;SDS011;5274;51.992;8.518;2023-02-28T04:18:39;10.13;;;6.10;;
10452;SDS011;5274;51.992;8.518;2023-02-28T04:21:06;10.20;;;5.83;;
10452;SDS011;5274;51.992;8.518;2023-02-28T04:23:32;9.47;;;6.27;;
10452;SDS011;5274;51.992;8.518;2023-02-28T04:25:58;8.53;;;5.83;;
10452;SDS011;5274;51.992;8.518;2023-02-28T04:28:24;8.33;;;6.30;;
10452;SDS011;5274;51.992;8.518;2023-02-28T04:30:54;10.40;;;5.63;;
10452;SDS011;5274;51.992;8.518;2023-02-28T04:33:20;6.20;;;5.17;;
10452;SDS011;5274;51.992;8.518;2023-02-28T04:35:46;8.53;;;5.77;;
10452;SDS011;5274;51.992;8.518;2023-02-28T04:38:12;8.20;;;5.27;;
10452;SDS011;5274;51.992;8.518;2023-02-28T04:40:38;8.40;;;5.83;;
10452;SDS011;5274;51.992;8.518;2023-02-28T04:43:04;10.27;;;5.60;;
10452;SDS011;5274;51.992;8.518;2023-02-28T04:45:30;6.83;;;5.23;;
10452;SDS011;5274;51.992;8.518;2023-02-28T04:47:57;10.13;;;5.97;;
10452;SDS011;5274;51.992;8.518;2023-02-28T04:50:23;7.33;;;5.47;;
10452;SDS011;5274;51.992;8.518;2023-02-28T04:52:49;6.07;;;5.30;;
10452;SDS011;5274;51.992;8.518;2023-02-28T04:55:15;8.17;;;5.63;;
10452;SDS011;5274;51.992;8.518;2023-02-28T04:57:41;8.10;;;5.80;;
10452;SDS011;5274;51.992;8.518;2023-02-28T05:00:07;10.80;;;6.27;;
10452;SDS011;5274;51.992;8.518;2023-02-28T05:02:36;7.73;;;6.40;;
10452;SDS011;5274;51.992;8.518;2023-02-28T05:05:02;11.33;;;6.63;;
10452;SDS011;5274;51.992;8.518;2023-02-28T05:07:28;8.50;;;6.30;;
10452;SDS011;5274;51.992;8.518;2023-02-28T05:09:54;9.57;;;6.60;;
10452;SDS011;5274;51.992;8.518;2023-02-28T05:12:20;7.60;;;6.50;;
10452;SDS011;5274;51.992;8.518;2023-02-28T05:14:46;12.43;;;6.57;;
10452;SDS011;5274;51.992;8.518;2023-02-28T05:17:12;9.13;;;7.30;;
10452;SDS011;5274;51.992;8.518;2023-02-28T05:19:38;10.63;;;6.70;;
10452;SDS011;5274;51.992;8.518;2023-02-28T05:22:03;9.97;;;6.87;;
10452;SDS011;5274;51.992;8.518;2023-02-28T05:24:29;13.47;;;7.27;;
10452;SDS011;5274;51.992;8.518;2023-02-28T05:26:55;10.70;;;6.97;;
10452;SDS011;5274;51.992;8.518;2023-02-28T05:29:22;11.83;;;7.27;;
10452;SDS011;5274;51.992;8.518;2023-02-28T05:31:48;9.77;;;7.40;;
10452;SDS011;5274;51.992;8.518;2023-02-28T05:34:14;9.63;;;6.83;;
10452;SDS011;5274;51.992;8.518;2023-02-28T05:36:40;13.00;;;7.87;;
10452;SDS011;5274;51.992;8.518;2023-02-28T05:39:06;10.37;;;7.27;;
10452;SDS011;5274;51.992;8.518;2023-02-28T05:41:37;12.57;;;7.50;;
10452;SDS011;5274;51.992;8.518;2023-02-28T05:44:03;8.83;;;6.97;;
10452;SDS011;5274;51.992;8.518;2023-02-28T05:46:29;9.43;;;7.20;;
10452;SDS011;5274;51.992;8.518;2023-02-28T05:48:55;9.83;;;7.13;;
10452;SDS011;5274;51.992;8.518;2023-02-28T05:51:22;10.90;;;6.43;;
10452;SDS011;5274;51.992;8.518;2023-02-28T05:53:48;11.30;;;7.03;;
10452;SDS011;5274;51.992;8.518;2023-02-28T05:56:14;8.40;;;6.53;;
10452;SDS011;5274;51.992;8.518;2023-02-28T05:58:40;10.47;;;6.73;;
10452;SDS011;5274;51.992;8.518;2023-02-28T06:01:20;9.73;;;7.10;;
10452;SDS011;5274;51.992;8.518;2023-02-28T06:03:46;11.27;;;7.50;;
10452;SDS011;5274;51.992;8.518;2023-02-28T06:06:12;13.83;;;7.37;;
10452;SDS011;5274;51.992;8.518;2023-02-28T06:08:37;9.63;;;7.23;;
10452;SDS011;5274;51.992;8.518;2023-02-28T06:11:04;12.67;;;8.17;;
10452;SDS011;5274;51.992;8.518;2023-02-28T06:13:31;14.60;;;8.80;;
10452;SDS011;5274;51.992;8.518;2023-02-28T06:16:00;10.37;;;7.13;;
10452;SDS011;5274;51.992;8.518;2023-02-28T06:18:26;13.50;;;7.57;;
10452;SDS011;5274;51.992;8.518;2023-02-28T06:20:52;12.73;;;8.23;;
10452;SDS011;5274;51.992;8.518;2023-02-28T06:23:19;12.53;;;7.27;;
10452;SDS011;5274;51.992;8.518;2023-02-28T06:25:45;12.20;;;7.37;;
10452;SDS011;5274;51.992;8.518;2023-02-28T06:28:11;12.13;;;7.80;;
10452;SDS011;5274;51.992;8.518;2023-02-28T06:30:37;11.37;;;7.90;;
10452;SDS011;5274;51.992;8.518;2023-02-28T06:33:04;14.07;;;9.23;;
10452;SDS011;5274;51.992;8.518;2023-02-28T06:35:30;10.70;;;8.87;;
10452;SDS011;5274;51.992;8.518;2023-02-28T06:37:56;12.03;;;8.20;;
10452;SDS011;5274;51.992;8.518;2023-02-28T06:40:22;7.10;;;6.27;;
10452;SDS011;5274;51.992;8.518;2023-02-28T06:42:48;10.67;;;6.37;;
10452;SDS011;5274;51.992;8.518;2023-02-28T06:45:13;9.87;;;6.77;;
10452;SDS011;5274;51.992;8.518;2023-02-28T06:47:40;10.33;;;6.00;;
10452;SDS011;5274;51.992;8.518;2023-02-28T06:50:07;8.00;;;6.57;;
10452;SDS011;5274;51.992;8.518;2023-02-28T06:52:34;9.73;;;6.57;;
10452;SDS011;5274;51.992;8.518;2023-02-28T06:55:05;9.23;;;6.70;;
10452;SDS011;5274;51.992;8.518;2023-02-28T06:57:33;10.90;;;6.30;;
10452;SDS011;5274;51.992;8.518;2023-02-28T07:00:00;8.80;;;6.53;;
10452;SDS011;5274;51.992;8.518;2023-02-28T07:02:26;10.73;;;6.97;;
10452;SDS011;5274;51.992;8.518;2023-02-28T07:04:52;9.40;;;6.47;;
10452;SDS011;5274;51.992;8.518;2023-02-28T07:07:18;7.83;;;6.23;;
10452;SDS011;5274;51.992;8.518;2023-02-28T07:09:44;7.00;;;6.30;;
10452;SDS011;5274;51.992;8.518;2023-02-28T07:12:10;8.73;;;6.83;;
10452;SDS011;5274;51.992;8.518;2023-02-28T07:14:36;12.23;;;7.33;;
10452;SDS011;5274;51.992;8.518;2023-02-28T07:17:03;10.27;;;7.17;;
10452;SDS011;5274;51.992;8.518;2023-02-28T07:19:29;12.57;;;7.50;;
10452;SDS011;5274;51.992;8.518;2023-02-28T07:21:54;11.67;;;7.00;;
10452;SDS011;5274;51.992;8.518;2023-02-28T07:24:20;8.30;;;7.00;;
10452;SDS011;5274;51.992;8.518;2023-02-28T07:26:48;8.77;;;6.93;;
10452;SDS011;5274;51.992;8.518;2023-02-28T07:29:14;12.87;;;7.20;;
10452;SDS011;5274;51.992;8.518;2023-02-28T07:31:40;8.13;;;6.60;;
10452;SDS011;5274;51.992;8.518;2023-02-28T07:34:06;9.93;;;6.40;;
10452;SDS011;5274;51.992;8.518;2023-02-28T07:36:32;12.70;;;7.50;;
10452;SDS011;5274;51.992;8.518;2023-02-28T07:38:58;8.67;;;6.77;;
10452;SDS011;5274;51.992;8.518;2023-02-28T07:41:24;9.07;;;6.70;;
10452;SDS011;5274;51.992;8.518;2023-02-28T07:43:53;12.20;;;7.40;;
10452;SDS011;5274;51.992;8.518;2023-02-28T07:46:20;10.00;;;7.40;;
10452;SDS011;5274;51.992;8.518;2023-02-28T07:48:46;9.97;;;6.80;;
10452;SDS011;5274;51.992;8.518;2023-02-28T07:51:12;8.07;;;6.70;;
10452;SDS011;5274;51.992;8.518;2023-02-28T07:53:38;7.87;;;6.77;;
10452;SDS011;5274;51.992;8.518;2023-02-28T07:56:04;14.80;;;7.37;;
10452;SDS011;5274;51.992;8.518;2023-02-28T07:58:30;8.07;;;6.70;;
10452;SDS011;5274;51.992;8.518;2023-02-28T08:00:56;8.60;;;7.90;;
10452;SDS011;5274;51.992;8.518;2023-02-28T08:03:23;9.63;;;8.83;;
10452;SDS011;5274;51.992;8.518;2023-02-28T08:05:49;9.10;;;8.40;;
10452;SDS011;5274;51.992;8.518;2023-02-28T08:08:16;11.80;;;10.67;;
10452;SDS011;5274;51.992;8.518;2023-02-28T08:10:42;11.57;;;10.57;;
10452;SDS011;5274;51.992;8.518;2023-02-28T08:13:08;13.10;;;11.90;;
10452;SDS011;5274;51.992;8.518;2023-02-28T08:15:34;14.53;;;13.40;;
10452;SDS011;5274;51.992;8.518;2023-02-28T08:18:01;12.47;;;11.37;;
10452;SDS011;5274;51.992;8.518;2023-02-28T08:20:27;15.10;;;13.97;;
10452;SDS011;5274;51.992;8.518;2023-02-28T08:22:53;15.07;;;13.97;;
10452;SDS011;5274;51.992;8.518;2023-02-28T08:25:19;16.40;;;15.30;;
10452;SDS011;5274;51.992;8.518;2023-02-28T08:27:45;21.17;;;19.27;;
10452;SDS011;5274;51.992;8.518;2023-02-28T08:30:11;16.40;;;15.40;;
10452;SDS011;5274;51.992;8.518;2023-02-28T08:32:38;23.00;;;21.60;;
10452;SDS011;5274;51.992;8.518;2023-02-28T08:35:04;19.87;;;18.20;;
10452;SDS011;5274;51.992;8.518;2023-02-28T08:37:30;25.87;;;24.27;;
10452;SDS011;5274;51.992;8.518;2023-02-28T08:39:56;26.07;;;24.03;;
10452;SDS011;5274;51.992;8.518;2023-02-28T08:42:22;26.23;;;24.63;;
10452;SDS011;5274;51.992;8.518;2023-02-28T08:44:48;29.03;;;26.90;;
10452;SDS011;5274;51.992;8.518;2023-02-28T08:47:14;33.63;;;31.63;;
10452;SDS011;5274;51.992;8.518;2023-02-28T08:49:40;32.70;;;30.60;;
10452;SDS011;5274;51.992;8.518;2023-02-28T08:52:06;26.13;;;24.70;;
10452;SDS011;5274;51.992;8.518;2023-02-28T08:54:32;28.80;;;27.07;;
10452;SDS011;5274;51.992;8.518;2023-02-28T08:56:59;30.93;;;29.13;;
10452;SDS011;5274;51.992;8.518;2023-02-28T08:59:25;38.57;;;36.17;;
10452;SDS011;5274;51.992;8.518;2023-02-28T09:01:51;39.90;;;37.27;;
10452;SDS011;5274;51.992;8.518;2023-02-28T09:04:17;51.53;;;47.93;;
10452;SDS011;5274;51.992;8.518;2023-02-28T09:06:43;55.17;;;51.33;;
10452;SDS011;5274;51.992;8.518;2023-02-28T09:09:09;49.57;;;46.27;;
10452;SDS011;5274;51.992;8.518;2023-02-28T09:11:36;53.07;;;49.37;;
10452;SDS011;5274;51.992;8.518;2023-02-28T09:14:02;57.40;;;53.07;;
10452;SDS011;5274;51.992;8.518;2023-02-28T09:16:29;50.87;;;47.33;;
10452;SDS011;5274;51.992;8.518;2023-02-28T09:18:55;54.40;;;50.60;;
10452;SDS011;5274;51.992;8.518;2023-02-28T09:21:21;55.30;;;51.30;;
10452;SDS011;5274;51.992;8.518;2023-02-28T09:23:48;59.73;;;55.23;;
10452;SDS011;5274;51.992;8.518;2023-02-28T09:26:18;59.60;;;55.30;;
10452;SDS011;5274;51.992;8.518;2023-02-28T09:28:44;59.13;;;54.83;;
10452;SDS011;5274;51.992;8.518;2023-02-28T09:31:14;59.23;;;55.10;;
10452;SDS011;5274;51.992;8.518;2023-02-28T09:33:41;60.90;;;56.50;;
10452;SDS011;5274;51.992;8.518;2023-02-28T09:36:07;65.13;;;60.33;;
10452;SDS011;5274;51.992;8.518;2023-02-28T09:38:33;64.33;;;59.63;;
10452;SDS011;5274;51.992;8.518;2023-02-28T09:41:01;64.17;;;59.47;;
10452;SDS011;5274;51.992;8.518;2023-02-28T09:43:33;63.03;;;58.37;;
10452;SDS011;5274;51.992;8.518;2023-02-28T09:46:02;67.00;;;62.20;;
10452;SDS011;5274;51.992;8.518;2023-02-28T09:48:35;67.67;;;62.43;;
10452;SDS011;5274;51.992;8.518;2023-02-28T09:51:03;70.30;;;65.13;;
10452;SDS011;5274;51.992;8.518;2023-02-28T09:53:33;72.23;;;66.73;;
10452;SDS011;5274;51.992;8.518;2023-02-28T09:56:04;72.20;;;66.60;;
10452;SDS011;5274;51.992;8.518;2023-02-28T09:58:47;71.43;;;66.03;;
10452;SDS011;5274;51.992;8.518;2023-02-28T10:01:25;67.43;;;62.53;;
10452;SDS011;5274;51.992;8.518;2023-02-28T10:04:16;71.77;;;66.30;;
10452;SDS011;5274;51.992;8.518;2023-02-28T10:06:45;70.63;;;65.13;;
10452;SDS011;5274;51.992;8.518;2023-02-28T10:09:14;69.33;;;64.10;;
10452;SDS011;5274;51.992;8.518;2023-02-28T10:11:42;69.63;;;64.43;;
10452;SDS011;5274;51.992;8.518;2023-02-28T10:14:14;72.00;;;66.50;;
10452;SDS011;5274;51.992;8.518;2023-02-28T10:16:45;76.60;;;70.77;;
10452;SDS011;5274;51.992;8.518;2023-02-28T10:21:41;76.27;;;70.57;;
10452;SDS011;5274;51.992;8.518;2023-02-28T10:24:23;75.07;;;69.53;;
10452;SDS011;5274;51.992;8.518;2023-02-28T10:26:52;74.13;;;68.63;;
10452;SDS011;5274;51.992;8.518;2023-02-28T10:29:23;73.83;;;68.33;;
10452;SDS011;5274;51.992;8.518;2023-02-28T10:31:48;72.80;;;67.40;;
10452;SDS011;5274;51.992;8.518;2023-02-28T10:34:14;69.73;;;64.33;;
10452;SDS011;5274;51.992;8.518;2023-02-28T10:36:40;72.00;;;66.43;;
10452;SDS011;5274;51.992;8.518;2023-02-28T10:41:52;71.10;;;65.80;;
10452;SDS011;5274;51.992;8.518;2023-02-28T10:44:22;73.67;;;68.13;;
10452;SDS011;5274;51.992;8.518;2023-02-28T10:46:49;74.03;;;68.43;;
10452;SDS011;5274;51.992;8.518;2023-02-28T10:49:36;74.07;;;68.43;;
10452;SDS011;5274;51.992;8.518;2023-02-28T10:52:04;75.27;;;69.57;;
10452;SDS011;5274;51.992;8.518;2023-02-28T10:54:31;74.73;;;69.17;;
10452;SDS011;5274;51.992;8.518;2023-02-28T10:59:35;68.37;;;63.27;;
10452;SDS011;5274;51.992;8.518;2023-02-28T11:02:01;73.63;;;68.03;;
10452;SDS011;5274;51.992;8.518;2023-02-28T11:07:16;76.03;;;70.60;;
10452;SDS011;5274;51.992;8.518;2023-02-28T11:09:45;70.43;;;65.50;;
10452;SDS011;5274;51.992;8.518;2023-02-28T11:12:45;76.77;;;71.27;;
10452;SDS011;5274;51.992;8.518;2023-02-28T11:15:07;78.10;;;72.47;;
10452;SDS011;5274;51.992;8.518;2023-02-28T11:17:44;76.53;;;70.83;;
10452;SDS011;5274;51.992;8.518;2023-02-28T11:20:17;65.80;;;61.10;;
10452;SDS011;5274;51.992;8.518;2023-02-28T11:22:45;68.13;;;63.50;;
10452;SDS011;5274;51.992;8.518;2023-02-28T11:27:48;78.73;;;73.23;;
10452;SDS011;5274;51.992;8.518;2023-02-28T11:30:31;83.27;;;77.27;;
10452;SDS011;5274;51.992;8.518;2023-02-28T11:32:59;82.83;;;77.07;;
10452;SDS011;5274;51.992;8.518;2023-02-28T11:35:30;80.40;;;74.70;;
10452;SDS011;5274;51.992;8.518;2023-02-28T11:37:56;87.23;;;80.83;;
10452;SDS011;5274;51.992;8.518;2023-02-28T11:43:04;82.70;;;76.70;;
10452;SDS011;5274;51.992;8.518;2023-02-28T11:48:21;81.00;;;75.20;;
10452;SDS011;5274;51.992;8.518;2023-02-28T11:50:59;74.82;;;69.53;;
10452;SDS011;5274;51.992;8.518;2023-02-28T11:53:39;77.30;;;71.70;;
10452;SDS011;5274;51.992;8.518;2023-02-28T11:56:15;79.80;;;74.20;;
10452;SDS011;5274;51.992;8.518;2023-02-28T11:58:54;80.13;;;74.43;;
10452;SDS011;5274;51.992;8.518;2023-02-28T12:06:43;88.60;;;81.95;;
10452;SDS011;5274;51.992;8.518;2023-02-28T12:14:16;72.65;;;67.60;;
10452;SDS011;5274;51.992;8.518;2023-02-28T12:22:13;88.30;;;81.82;;
10452;SDS011;5274;51.992;8.518;2023-02-28T12:27:45;87.38;;;81.05;;
10452;SDS011;5274;51.992;8.518;2023-02-28T12:32:51;88.18;;;81.80;;
10452;SDS011;5274;51.992;8.518;2023-02-28T12:35:26;88.22;;;81.85;;
10452;SDS011;5274;51.992;8.518;2023-02-28T12:38:09;89.10;;;82.70;;
10452;SDS011;5274;51.992;8.518;2023-02-28T12:40:45;86.68;;;80.57;;
10452;SDS011;5274;51.992;8.518;2023-02-28T12:43:13;86.40;;;80.20;;
10452;SDS011;5274;51.992;8.518;2023-02-28T12:45:50;86.38;;;80.18;;
10452;SDS011;5274;51.992;8.518;2023-02-28T12:48:21;88.25;;;81.85;;
10452;SDS011;5274;51.992;8.518;2023-02-28T12:50:49;88.68;;;81.85;;
10452;SDS011;5274;51.992;8.518;2023-02-28T12:53:23;90.70;;;84.00;;
10452;SDS011;5274;51.992;8.518;2023-02-28T12:58:37;88.88;;;82.28;;
10452;SDS011;5274;51.992;8.518;2023-02-28T13:01:13;84.70;;;78.60;;
10452;SDS011;5274;51.992;8.518;2023-02-28T13:09:02;86.15;;;79.90;;
10452;SDS011;5274;51.992;8.518;2023-02-28T13:11:45;86.90;;;80.47;;
10452;SDS011;5274;51.992;8.518;2023-02-28T13:17:26;89.53;;;82.95;;
10452;SDS011;5274;51.992;8.518;2023-02-28T13:19:44;81.57;;;75.68;;
10452;SDS011;5274;51.992;8.518;2023-02-28T13:22:17;85.20;;;78.88;;
10452;SDS011;5274;51.992;8.518;2023-02-28T13:24:50;81.78;;;75.78;;
10452;SDS011;5274;51.992;8.518;2023-02-28T13:27:21;79.28;;;73.18;;
10452;SDS011;5274;51.992;8.518;2023-02-28T13:29:49;78.53;;;72.57;;
10452;SDS011;5274;51.992;8.518;2023-02-28T13:32:26;79.35;;;73.35;;
10452;SDS011;5274;51.992;8.518;2023-02-28T13:39:54;81.25;;;75.10;;
10452;SDS011;5274;51.992;8.518;2023-02-28T13:42:31;85.03;;;78.63;;
10452;SDS011;5274;51.992;8.518;2023-02-28T13:47:41;86.05;;;79.65;;
10452;SDS011;5274;51.992;8.518;2023-02-28T13:53:06;82.28;;;76.00;;
10452;SDS011;5274;51.992;8.518;2023-02-28T13:55:43;73.63;;;67.90;;
10452;SDS011;5274;51.992;8.518;2023-02-28T13:58:31;81.20;;;74.93;;
10452;SDS011;5274;51.992;8.518;2023-02-28T14:06:21;80.13;;;74.03;;
10452;SDS011;5274;51.992;8.518;2023-02-28T14:11:41;87.20;;;80.50;;
10452;SDS011;5274;51.992;8.518;2023-02-28T14:14:08;86.75;;;80.15;;
10452;SDS011;5274;51.992;8.518;2023-02-28T14:16:44;89.35;;;82.55;;
10452;SDS011;5274;51.992;8.518;2023-02-28T14:19:12;83.82;;;77.53;;
10452;SDS011;5274;51.992;8.518;2023-02-28T14:21:43;85.10;;;78.70;;
10452;SDS011;5274;51.992;8.518;2023-02-28T14:26:51;81.63;;;75.55;;
10452;SDS011;5274;51.992;8.518;2023-02-28T14:29:29;82.35;;;76.05;;
10452;SDS011;5274;51.992;8.518;2023-02-28T14:34:39;80.93;;;74.90;;
10452;SDS011;5274;51.992;8.518;2023-02-28T14:37:11;85.03;;;78.63;;
10452;SDS011;5274;51.992;8.518;2023-02-28T14:39:40;83.35;;;77.00;;
10452;SDS011;5274;51.992;8.518;2023-02-28T14:42:25;83.25;;;77.20;;
10452;SDS011;5274;51.992;8.518;2023-02-28T14:44:53;85.10;;;78.80;;
10452;SDS011;5274;51.992;8.518;2023-02-28T14:47:23;86.20;;;79.50;;
10452;SDS011;5274;51.992;8.518;2023-02-28T14:49:50;84.63;;;78.50;;
10452;SDS011;5274;51.992;8.518;2023-02-28T14:52:20;85.55;;;79.25;;
10452;SDS011;5274;51.992;8.518;2023-02-28T14:54:46;85.10;;;78.82;;
10452;SDS011;5274;51.992;8.518;2023-02-28T14:57:27;87.30;;;80.80;;
10452;SDS011;5274;51.992;8.518;2023-02-28T15:00:27;89.93;;;83.32;;
10452;SDS011;5274;51.992;8.518;2023-02-28T15:02:45;86.28;;;79.88;;
10452;SDS011;5274;51.992;8.518;2023-02-28T15:07:43;83.28;;;77.25;;
10452;SDS011;5274;51.992;8.518;2023-02-28T15:12:35;83.70;;;77.70;;
10452;SDS011;5274;51.992;8.518;2023-02-28T15:15:02;85.15;;;79.15;;
10452;SDS011;5274;51.992;8.518;2023-02-28T15:17:28;80.77;;;75.03;;
10452;SDS011;5274;51.992;8.518;2023-02-28T15:19:54;82.00;;;76.10;;
10452;SDS011;5274;51.992;8.518;2023-02-28T15:22:24;83.40;;;77.20;;
10452;SDS011;5274;51.992;8.518;2023-02-28T15:24:53;86.50;;;80.00;;
10452;SDS011;5274;51.992;8.518;2023-02-28T15:27:24;85.90;;;79.60;;
10452;SDS011;5274;51.992;8.518;2023-02-28T15:29:54;88.33;;;81.83;;
10452;SDS011;5274;51.992;8.518;2023-02-28T15:32:29;87.87;;;81.43;;
10452;SDS011;5274;51.992;8.518;2023-02-28T15:34:55;87.07;;;80.57;;
10452;SDS011;5274;51.992;8.518;2023-02-28T15:37:28;86.07;;;79.70;;
10452;SDS011;5274;51.992;8.518;2023-02-28T15:39:56;83.70;;;77.53;;
10452;SDS011;5274;51.992;8.518;2023-02-28T15:42:22;83.90;;;77.83;;
10452;SDS011;5274;51.992;8.518;2023-02-28T15:44:48;83.97;;;77.67;;
10452;SDS011;5274;51.992;8.518;2023-02-28T15:49:51;80.07;;;74.23;;
10452;SDS011;5274;51.992;8.518;2023-02-28T15:52:19;83.50;;;77.30;;
10452;SDS011;5274;51.992;8.518;2023-02-28T15:54:47;84.70;;;78.47;;
10452;SDS011;5274;51.992;8.518;2023-02-28T15:57:14;84.47;;;78.07;;
10452;SDS011;5274;51.992;8.518;2023-02-28T15:59:42;85.07;;;78.80;;
10452;SDS011;5274;51.992;8.518;2023-02-28T16:02:17;85.53;;;79.13;;
10452;SDS011;5274;51.992;8.518;2023-02-28T16:07:22;85.17;;;78.80;;
10452;SDS011;5274;51.992;8.518;2023-02-28T16:09:49;85.50;;;79.20;;
10452;SDS011;5274;51.992;8.518;2023-02-28T16:12:15;83.80;;;77.17;;
10452;SDS011;5274;51.992;8.518;2023-02-28T16:14:41;82.13;;;76.03;;
10452;SDS011;5274;51.992;8.518;2023-02-28T16:17:10;83.57;;;77.47;;
10452;SDS011;5274;51.992;8.518;2023-02-28T16:19:41;84.27;;;78.07;;
10452;SDS011;5274;51.992;8.518;2023-02-28T16:22:07;84.03;;;77.73;;
10452;SDS011;5274;51.992;8.518;2023-02-28T16:24:34;85.00;;;78.70;;
10452;SDS011;5274;51.992;8.518;2023-02-28T16:27:00;84.50;;;78.10;;
10452;SDS011;5274;51.992;8.518;2023-02-28T16:29:29;85.07;;;78.77;;
10452;SDS011;5274;51.992;8.518;2023-02-28T16:31:56;85.30;;;78.97;;
10452;SDS011;5274;51.992;8.518;2023-02-28T16:34:22;83.33;;;77.10;;
10452;SDS011;5274;51.992;8.518;2023-02-28T16:36:48;85.70;;;79.40;;
10452;SDS011;5274;51.992;8.518;2023-02-28T16:39:15;85.47;;;79.17;;
10452;SDS011;5274;51.992;8.518;2023-02-28T16:41:44;86.77;;;80.37;;
10452;SDS011;5274;51.992;8.518;2023-02-28T16:44:11;84.20;;;77.90;;
10452;SDS011;5274;51.992;8.518;2023-02-28T16:46:38;87.03;;;80.63;;